CheckWX is a tool to help pilots better visualize weather data.  It is not intended as a substitute for an official pre-flight weather briefing.

02:22:31 UTC

MKJP TAF
Norman Manley International Airport
Kingston, Jamaica
TAF MKJP 182315Z 1900/1924 14012KT 9999 SCT018 SCT032 BECMG 1901/1903 35005KT FEW022 SCT032 BECMG 1914/1916 14013KT FEW020

Mar-19@
00:00 UTC

Mar-19 @ 00:00 UTC

Mar-19@
01:00 UTC

Mar-19 @ 01:00 UTC

TAF MKJP 182315Z 1900/1924 14012KT 9999 SCT018 SCT032

Expired

Wind
  • 140° at 12 KTS
Cloud Levels
  • Scattered at 1,800' AGL
  • Scattered at 3,200' AGL

Mar-19@
01:00 UTC

Mar-19 @ 01:00 UTC

Mar-19@
14:00 UTC

Mar-19 @ 14:00 UTC

BECMG 1901/1903 35005KT FEW022 SCT032

Becoming

Becoming Conditions expected by Tue, Mar 19, 2019 @ 03:00 UTC

Wind
  • 350° at 5 KTS
Cloud Levels
  • Few at 2,200' AGL
  • Scattered at 3,200' AGL

Mar-19@
14:00 UTC

Mar-19 @ 14:00 UTC

Mar-20@
00:00 UTC

Mar-20 @ 00:00 UTC

BECMG 1914/1916 14013KT FEW020

Becoming

Becoming Conditions expected by Tue, Mar 19, 2019 @ 16:00 UTC

Wind
  • 140° at 13 KTS
Cloud Levels
  • Few at 2,000' AGL